sensor_id;sensor_type;location;lat;lon;timestamp;temperature;humidity
9167;DHT22;4618;48.818;9.088;2022-09-28T00:00:31;8.40;1.00
9167;DHT22;4618;48.818;9.088;2022-09-28T00:02:57;8.40;1.00
9167;DHT22;4618;48.818;9.088;2022-09-28T00:05:24;8.40;1.00
9167;DHT22;4618;48.818;9.088;2022-09-28T00:07:53;8.40;1.00
9167;DHT22;4618;48.818;9.088;2022-09-28T00:10:19;8.40;1.00
9167;DHT22;4618;48.818;9.088;2022-09-28T00:12:51;8.40;1.00
9167;DHT22;4618;48.818;9.088;2022-09-28T00:15:17;8.40;91.50
9167;DHT22;4618;48.818;9.088;2022-09-28T00:17:43;8.50;1.00
9167;DHT22;4618;48.818;9.088;2022-09-28T00:20:11;8.50;38.10
9167;DHT22;4618;48.818;9.088;2022-09-28T00:22:37;8.50;1.00
9167;DHT22;4618;48.818;9.088;2022-09-28T00:25:04;8.50;1.00
9167;DHT22;4618;48.818;9.088;2022-09-28T00:27:30;8.50;1.00
9167;DHT22;4618;48.818;9.088;2022-09-28T00:29:55;8.50;99.90
9167;DHT22;4618;48.818;9.088;2022-09-28T00:32:21;8.50;98.60
9167;DHT22;4618;48.818;9.088;2022-09-28T00:34:50;8.50;76.00
9167;DHT22;4618;48.818;9.088;2022-09-28T00:37:16;8.60;99.90
9167;DHT22;4618;48.818;9.088;2022-09-28T00:39:43;8.70;1.00
9167;DHT22;4618;48.818;9.088;2022-09-28T00:42:18;8.70;1.00
9167;DHT22;4618;48.818;9.088;2022-09-28T00:44:51;8.70;1.00
9167;DHT22;4618;48.818;9.088;2022-09-28T00:47:23;8.70;1.00
9167;DHT22;4618;48.818;9.088;2022-09-28T00:52:48;8.80;1.00
9167;DHT22;4618;48.818;9.088;2022-09-28T00:55:18;8.80;1.00
9167;DHT22;4618;48.818;9.088;2022-09-28T00:57:50;8.80;1.00
9167;DHT22;4618;48.818;9.088;2022-09-28T01:00:17;8.80;99.90
9167;DHT22;4618;48.818;9.088;2022-09-28T01:02:44;8.90;21.80
9167;DHT22;4618;48.818;9.088;2022-09-28T01:05:10;8.90;98.50
9167;DHT22;4618;48.818;9.088;2022-09-28T01:07:37;8.80;99.90
9167;DHT22;4618;48.818;9.088;2022-09-28T01:10:04;8.90;99.90
9167;DHT22;4618;48.818;9.088;2022-09-28T01:12:30;8.90;99.90
9167;DHT22;4618;48.818;9.088;2022-09-28T01:14:56;8.80;99.90
9167;DHT22;4618;48.818;9.088;2022-09-28T01:17:29;8.90;99.90
9167;DHT22;4618;48.818;9.088;2022-09-28T01:28:11;9.10;1.00
9167;DHT22;4618;48.818;9.088;2022-09-28T01:30:43;9.00;1.00
9167;DHT22;4618;48.818;9.088;2022-09-28T01:33:14;9.00;22.40
9167;DHT22;4618;48.818;9.088;2022-09-28T01:39:00;9.10;1.00
9167;DHT22;4618;48.818;9.088;2022-09-28T01:41:28;9.20;1.00
9167;DHT22;4618;48.818;9.088;2022-09-28T01:43:57;9.20;1.00
9167;DHT22;4618;48.818;9.088;2022-09-28T01:46:33;9.20;99.90
9167;DHT22;4618;48.818;9.088;2022-09-28T01:49:05;9.20;1.00
9167;DHT22;4618;48.818;9.088;2022-09-28T01:51:48;9.20;1.00
9167;DHT22;4618;48.818;9.088;2022-09-28T01:54:27;9.20;99.90
9167;DHT22;4618;48.818;9.088;2022-09-28T01:57:08;9.20;99.90
9167;DHT22;4618;48.818;9.088;2022-09-28T01:59:36;9.30;1.00
9167;DHT22;4618;48.818;9.088;2022-09-28T02:02:27;9.20;20.00
9167;DHT22;4618;48.818;9.088;2022-09-28T02:05:07;9.30;13.10
9167;DHT22;4618;48.818;9.088;2022-09-28T02:07:39;9.30;99.90
9167;DHT22;4618;48.818;9.088;2022-09-28T02:10:14;9.30;1.00
9167;DHT22;4618;48.818;9.088;2022-09-28T02:12:48;9.30;52.80
9167;DHT22;4618;48.818;9.088;2022-09-28T02:15:33;9.40;1.00
9167;DHT22;4618;48.818;9.088;2022-09-28T02:17:59;9.30;99.90
9167;DHT22;4618;48.818;9.088;2022-09-28T02:20:26;9.30;99.90
9167;DHT22;4618;48.818;9.088;2022-09-28T02:22:55;9.30;99.90
9167;DHT22;4618;48.818;9.088;2022-09-28T02:28:03;9.40;1.00
9167;DHT22;4618;48.818;9.088;2022-09-28T02:30:30;9.40;1.00
9167;DHT22;4618;48.818;9.088;2022-09-28T02:33:00;9.50;1.00
9167;DHT22;4618;48.818;9.088;2022-09-28T02:35:27;9.50;1.00
9167;DHT22;4618;48.818;9.088;2022-09-28T02:37:53;9.40;1.00
9167;DHT22;4618;48.818;9.088;2022-09-28T02:40:22;9.50;1.00
9167;DHT22;4618;48.818;9.088;2022-09-28T02:45:49;9.40;99.90
9167;DHT22;4618;48.818;9.088;2022-09-28T02:48:42;9.40;99.90
9167;DHT22;4618;48.818;9.088;2022-09-28T02:51:31;9.40;99.90
9167;DHT22;4618;48.818;9.088;2022-09-28T03:00:20;9.30;99.90
9167;DHT22;4618;48.818;9.088;2022-09-28T03:08:30;9.40;99.90
9167;DHT22;4618;48.818;9.088;2022-09-28T03:11:00;9.40;99.90
9167;DHT22;4618;48.818;9.088;2022-09-28T03:13:27;9.40;1.00
9167;DHT22;4618;48.818;9.088;2022-09-28T03:16:07;9.40;1.00
9167;DHT22;4618;48.818;9.088;2022-09-28T03:18:32;9.40;99.90
9167;DHT22;4618;48.818;9.088;2022-09-28T03:20:59;9.50;1.00
9167;DHT22;4618;48.818;9.088;2022-09-28T03:23:25;9.40;99.90
9167;DHT22;4618;48.818;9.088;2022-09-28T03:25:50;9.40;1.00
9167;DHT22;4618;48.818;9.088;2022-09-28T03:28:16;9.50;1.00
9167;DHT22;4618;48.818;9.088;2022-09-28T03:30:41;9.50;99.90
9167;DHT22;4618;48.818;9.088;2022-09-28T03:33:07;9.60;99.90
9167;DHT22;4618;48.818;9.088;2022-09-28T03:35:33;9.50;99.90
9167;DHT22;4618;48.818;9.088;2022-09-28T03:37:58;9.50;99.90
9167;DHT22;4618;48.818;9.088;2022-09-28T03:40:24;9.60;1.00
9167;DHT22;4618;48.818;9.088;2022-09-28T03:42:49;9.60;1.00
9167;DHT22;4618;48.818;9.088;2022-09-28T03:45:15;9.60;99.90
9167;DHT22;4618;48.818;9.088;2022-09-28T03:47:45;9.60;1.00
9167;DHT22;4618;48.818;9.088;2022-09-28T03:50:11;9.50;1.00
9167;DHT22;4618;48.818;9.088;2022-09-28T03:52:36;9.20;1.00
9167;DHT22;4618;48.818;9.088;2022-09-28T03:55:02;9.00;1.00
9167;DHT22;4618;48.818;9.088;2022-09-28T03:57:28;8.90;1.00
9167;DHT22;4618;48.818;9.088;2022-09-28T03:59:53;8.90;8.00
9167;DHT22;4618;48.818;9.088;2022-09-28T04:02:19;8.80;99.90
9167;DHT22;4618;48.818;9.088;2022-09-28T04:04:44;8.80;99.90
9167;DHT22;4618;48.818;9.088;2022-09-28T04:07:10;8.80;99.90
9167;DHT22;4618;48.818;9.088;2022-09-28T04:09:35;8.80;99.90
9167;DHT22;4618;48.818;9.088;2022-09-28T04:12:01;8.80;99.90
9167;DHT22;4618;48.818;9.088;2022-09-28T04:14:27;8.80;99.90
9167;DHT22;4618;48.818;9.088;2022-09-28T04:16:52;8.80;99.90
9167;DHT22;4618;48.818;9.088;2022-09-28T04:19:19;8.80;99.90
9167;DHT22;4618;48.818;9.088;2022-09-28T04:21:47;8.80;99.90
9167;DHT22;4618;48.818;9.088;2022-09-28T04:24:12;8.80;99.90
9167;DHT22;4618;48.818;9.088;2022-09-28T04:26:38;8.80;1.00
9167;DHT22;4618;48.818;9.088;2022-09-28T04:29:04;8.80;1.00
9167;DHT22;4618;48.818;9.088;2022-09-28T04:31:45;8.80;1.00
9167;DHT22;4618;48.818;9.088;2022-09-28T04:34:13;8.70;1.00
9167;DHT22;4618;48.818;9.088;2022-09-28T04:36:39;8.70;1.00
9167;DHT22;4618;48.818;9.088;2022-09-28T04:39:05;8.70;1.00
9167;DHT22;4618;48.818;9.088;2022-09-28T04:41:31;8.80;1.00
9167;DHT22;4618;48.818;9.088;2022-09-28T04:43:57;8.70;1.00
9167;DHT22;4618;48.818;9.088;2022-09-28T04:46:22;8.60;1.00
9167;DHT22;4618;48.818;9.088;2022-09-28T04:48:48;8.60;1.00
9167;DHT22;4618;48.818;9.088;2022-09-28T04:51:14;8.60;9.90
9167;DHT22;4618;48.818;9.088;2022-09-28T04:53:39;8.60;99.90
9167;DHT22;4618;48.818;9.088;2022-09-28T04:56:10;8.60;99.90
9167;DHT22;4618;48.818;9.088;2022-09-28T04:58:37;8.60;1.00
9167;DHT22;4618;48.818;9.088;2022-09-28T05:01:07;8.50;54.00
9167;DHT22;4618;48.818;9.088;2022-09-28T05:03:33;8.60;99.90
9167;DHT22;4618;48.818;9.088;2022-09-28T05:05:59;8.50;99.90
9167;DHT22;4618;48.818;9.088;2022-09-28T05:08:26;8.50;99.90
9167;DHT22;4618;48.818;9.088;2022-09-28T05:10:59;8.50;99.90
9167;DHT22;4618;48.818;9.088;2022-09-28T05:13:26;8.50;99.90
9167;DHT22;4618;48.818;9.088;2022-09-28T05:15:54;8.50;99.90
9167;DHT22;4618;48.818;9.088;2022-09-28T05:18:19;8.40;99.90
9167;DHT22;4618;48.818;9.088;2022-09-28T05:20:45;8.40;99.90
9167;DHT22;4618;48.818;9.088;2022-09-28T05:23:11;8.50;99.90
9167;DHT22;4618;48.818;9.088;2022-09-28T05:25:38;8.50;99.90
9167;DHT22;4618;48.818;9.088;2022-09-28T05:28:04;8.50;99.90
9167;DHT22;4618;48.818;9.088;2022-09-28T05:30:30;8.40;99.90
9167;DHT22;4618;48.818;9.088;2022-09-28T05:32:56;8.50;99.90
9167;DHT22;4618;48.818;9.088;2022-09-28T05:35:21;8.50;99.90
9167;DHT22;4618;48.818;9.088;2022-09-28T05:37:47;8.40;99.90
9167;DHT22;4618;48.818;9.088;2022-09-28T05:40:13;8.50;99.90
9167;DHT22;4618;48.818;9.088;2022-09-28T05:42:40;8.40;99.90
9167;DHT22;4618;48.818;9.088;2022-09-28T05:45:07;8.50;99.90
9167;DHT22;4618;48.818;9.088;2022-09-28T05:47:37;8.50;99.90
9167;DHT22;4618;48.818;9.088;2022-09-28T05:50:03;8.50;99.90
9167;DHT22;4618;48.818;9.088;2022-09-28T05:52:29;8.40;99.90
9167;DHT22;4618;48.818;9.088;2022-09-28T05:54:54;8.50;99.90
9167;DHT22;4618;48.818;9.088;2022-09-28T05:57:20;8.50;99.90
9167;DHT22;4618;48.818;9.088;2022-09-28T05:59:46;8.50;99.90
9167;DHT22;4618;48.818;9.088;2022-09-28T06:02:11;8.50;99.90
9167;DHT22;4618;48.818;9.088;2022-09-28T06:04:37;8.50;99.90
9167;DHT22;4618;48.818;9.088;2022-09-28T06:07:02;8.50;99.90
9167;DHT22;4618;48.818;9.088;2022-09-28T06:09:29;8.50;99.90
9167;DHT22;4618;48.818;9.088;2022-09-28T06:11:56;8.60;99.90
9167;DHT22;4618;48.818;9.088;2022-09-28T06:14:22;8.60;99.90
9167;DHT22;4618;48.818;9.088;2022-09-28T06:16:47;8.60;99.90
9167;DHT22;4618;48.818;9.088;2022-09-28T06:19:14;8.70;99.90
9167;DHT22;4618;48.818;9.088;2022-09-28T06:21:39;8.70;99.90
9167;DHT22;4618;48.818;9.088;2022-09-28T06:24:05;8.70;99.90
9167;DHT22;4618;48.818;9.088;2022-09-28T06:26:31;8.80;99.90
9167;DHT22;4618;48.818;9.088;2022-09-28T06:28:56;8.90;99.90
9167;DHT22;4618;48.818;9.088;2022-09-28T06:31:25;8.90;99.90
9167;DHT22;4618;48.818;9.088;2022-09-28T06:33:51;8.80;99.90
9167;DHT22;4618;48.818;9.088;2022-09-28T06:36:17;8.80;99.90
9167;DHT22;4618;48.818;9.088;2022-09-28T06:38:44;8.90;99.90
9167;DHT22;4618;48.818;9.088;2022-09-28T06:41:10;8.90;99.90
9167;DHT22;4618;48.818;9.088;2022-09-28T06:43:36;9.00;99.90
9167;DHT22;4618;48.818;9.088;2022-09-28T06:46:05;8.90;99.90
9167;DHT22;4618;48.818;9.088;2022-09-28T06:48:32;9.00;99.90
9167;DHT22;4618;48.818;9.088;2022-09-28T06:51:00;9.10;99.90
9167;DHT22;4618;48.818;9.088;2022-09-28T06:53:27;9.10;99.90
9167;DHT22;4618;48.818;9.088;2022-09-28T06:55:54;9.10;99.90
9167;DHT22;4618;48.818;9.088;2022-09-28T06:58:21;9.10;99.90
9167;DHT22;4618;48.818;9.088;2022-09-28T07:00:49;9.10;99.90
9167;DHT22;4618;48.818;9.088;2022-09-28T07:03:18;9.10;23.70
9167;DHT22;4618;48.818;9.088;2022-09-28T07:05:47;9.10;92.50
9167;DHT22;4618;48.818;9.088;2022-09-28T07:08:14;9.10;16.00
9167;DHT22;4618;48.818;9.088;2022-09-28T07:10:45;9.10;99.90
9167;DHT22;4618;48.818;9.088;2022-09-28T07:13:11;9.10;1.00
9167;DHT22;4618;48.818;9.088;2022-09-28T07:15:38;9.10;1.00
9167;DHT22;4618;48.818;9.088;2022-09-28T07:18:05;9.20;1.00
9167;DHT22;4618;48.818;9.088;2022-09-28T07:20:33;9.20;1.00
9167;DHT22;4618;48.818;9.088;2022-09-28T07:23:01;9.20;1.00
9167;DHT22;4618;48.818;9.088;2022-09-28T07:25:27;9.20;1.00
9167;DHT22;4618;48.818;9.088;2022-09-28T07:28:01;9.30;1.00
9167;DHT22;4618;48.818;9.088;2022-09-28T07:30:32;9.30;99.90
9167;DHT22;4618;48.818;9.088;2022-09-28T07:32:59;9.40;99.90
9167;DHT22;4618;48.818;9.088;2022-09-28T07:35:25;9.40;99.90
9167;DHT22;4618;48.818;9.088;2022-09-28T07:37:59;9.40;99.90
9167;DHT22;4618;48.818;9.088;2022-09-28T07:40:27;9.40;99.90
9167;DHT22;4618;48.818;9.088;2022-09-28T07:43:11;9.30;99.90
9167;DHT22;4618;48.818;9.088;2022-09-28T07:45:48;9.40;99.90
9167;DHT22;4618;48.818;9.088;2022-09-28T07:48:14;9.50;99.90
9167;DHT22;4618;48.818;9.088;2022-09-28T07:50:48;9.70;1.00
9167;DHT22;4618;48.818;9.088;2022-09-28T07:53:17;9.70;1.00
9167;DHT22;4618;48.818;9.088;2022-09-28T07:55:43;9.90;1.00
9167;DHT22;4618;48.818;9.088;2022-09-28T07:58:08;10.00;1.00
9167;DHT22;4618;48.818;9.088;2022-09-28T08:00:34;10.00;99.90
9167;DHT22;4618;48.818;9.088;2022-09-28T08:03:00;10.00;1.00
9167;DHT22;4618;48.818;9.088;2022-09-28T08:05:26;10.10;1.00
9167;DHT22;4618;48.818;9.088;2022-09-28T08:07:55;10.20;99.90
9167;DHT22;4618;48.818;9.088;2022-09-28T08:10:23;10.20;99.90
9167;DHT22;4618;48.818;9.088;2022-09-28T08:12:56;10.30;1.00
9167;DHT22;4618;48.818;9.088;2022-09-28T08:15:21;10.40;1.00
9167;DHT22;4618;48.818;9.088;2022-09-28T08:17:48;10.40;1.00
9167;DHT22;4618;48.818;9.088;2022-09-28T08:20:14;10.60;1.00
9167;DHT22;4618;48.818;9.088;2022-09-28T08:23:05;10.70;1.00
9167;DHT22;4618;48.818;9.088;2022-09-28T08:25:32;10.70;1.00
9167;DHT22;4618;48.818;9.088;2022-09-28T08:28:01;10.70;1.00
9167;DHT22;4618;48.818;9.088;2022-09-28T08:30:26;10.90;99.90
9167;DHT22;4618;48.818;9.088;2022-09-28T08:32:52;10.80;1.00
9167;DHT22;4618;48.818;9.088;2022-09-28T08:35:18;10.80;1.00
9167;DHT22;4618;48.818;9.088;2022-09-28T08:37:48;11.10;99.90
9167;DHT22;4618;48.818;9.088;2022-09-28T08:40:20;11.20;1.00
9167;DHT22;4618;48.818;9.088;2022-09-28T08:42:53;11.20;99.90
9167;DHT22;4618;48.818;9.088;2022-09-28T08:45:31;11.20;1.00
9167;DHT22;4618;48.818;9.088;2022-09-28T08:48:05;10.90;99.90
9167;DHT22;4618;48.818;9.088;2022-09-28T08:51:00;10.90;84.40
9167;DHT22;4618;48.818;9.088;2022-09-28T08:56:25;10.90;1.00
9167;DHT22;4618;48.818;9.088;2022-09-28T08:58:56;11.10;99.90
9167;DHT22;4618;48.818;9.088;2022-09-28T09:01:23;11.20;99.90
9167;DHT22;4618;48.818;9.088;2022-09-28T09:03:50;11.40;1.00
9167;DHT22;4618;48.818;9.088;2022-09-28T09:09:25;11.50;1.00
9167;DHT22;4618;48.818;9.088;2022-09-28T09:12:09;11.30;1.00
9167;DHT22;4618;48.818;9.088;2022-09-28T09:23:00;11.40;99.90
9167;DHT22;4618;48.818;9.088;2022-09-28T09:25:40;11.50;1.00
9167;DHT22;4618;48.818;9.088;2022-09-28T09:39:52;11.80;1.00
9167;DHT22;4618;48.818;9.088;2022-09-28T09:48:33;12.90;99.90
9167;DHT22;4618;48.818;9.088;2022-09-28T09:51:03;12.90;99.90
9167;DHT22;4618;48.818;9.088;2022-09-28T09:53:37;12.50;1.00
9167;DHT22;4618;48.818;9.088;2022-09-28T09:56:14;12.50;99.90
9167;DHT22;4618;48.818;9.088;2022-09-28T09:58:55;12.60;1.00
9167;DHT22;4618;48.818;9.088;2022-09-28T10:01:34;12.60;1.00
9167;DHT22;4618;48.818;9.088;2022-09-28T10:04:01;12.50;1.00
9167;DHT22;4618;48.818;9.088;2022-09-28T10:06:32;12.80;1.00
9167;DHT22;4618;48.818;9.088;2022-09-28T10:09:25;12.70;99.90
9167;DHT22;4618;48.818;9.088;2022-09-28T10:11:52;12.90;1.00
9167;DHT22;4618;48.818;9.088;2022-09-28T10:14:23;12.90;99.90
9167;DHT22;4618;48.818;9.088;2022-09-28T10:16:51;12.80;99.90
9167;DHT22;4618;48.818;9.088;2022-09-28T10:19:20;12.60;99.90
9167;DHT22;4618;48.818;9.088;2022-09-28T10:24:41;12.50;1.00
9167;DHT22;4618;48.818;9.088;2022-09-28T10:27:30;12.50;1.00
9167;DHT22;4618;48.818;9.088;2022-09-28T10:32:43;12.50;1.00
9167;DHT22;4618;48.818;9.088;2022-09-28T10:35:22;12.40;1.00
9167;DHT22;4618;48.818;9.088;2022-09-28T10:38:13;12.70;1.00
9167;DHT22;4618;48.818;9.088;2022-09-28T10:40:58;12.80;1.00
9167;DHT22;4618;48.818;9.088;2022-09-28T10:43:32;12.70;99.90
9167;DHT22;4618;48.818;9.088;2022-09-28T10:46:19;13.00;1.00
9167;DHT22;4618;48.818;9.088;2022-09-28T10:51:15;12.90;1.00
9167;DHT22;4618;48.818;9.088;2022-09-28T10:53:40;13.30;99.90
9167;DHT22;4618;48.818;9.088;2022-09-28T10:56:20;13.30;99.90
9167;DHT22;4618;48.818;9.088;2022-09-28T10:58:46;13.50;1.00
9167;DHT22;4618;48.818;9.088;2022-09-28T11:01:22;13.50;99.90
9167;DHT22;4618;48.818;9.088;2022-09-28T11:03:56;13.20;99.90
9167;DHT22;4618;48.818;9.088;2022-09-28T11:06:31;13.30;99.90
9167;DHT22;4618;48.818;9.088;2022-09-28T11:08:59;13.30;99.90
9167;DHT22;4618;48.818;9.088;2022-09-28T11:11:26;13.50;99.90
9167;DHT22;4618;48.818;9.088;2022-09-28T11:13:56;13.70;66.40
9167;DHT22;4618;48.818;9.088;2022-09-28T11:16:32;13.30;99.90
9167;DHT22;4618;48.818;9.088;2022-09-28T11:21:43;13.10;99.90
9167;DHT22;4618;48.818;9.088;2022-09-28T11:26:48;13.20;99.90
9167;DHT22;4618;48.818;9.088;2022-09-28T11:29:42;13.20;1.00
9167;DHT22;4618;48.818;9.088;2022-09-28T11:32:08;13.60;1.00
9167;DHT22;4618;48.818;9.088;2022-09-28T11:34:47;14.10;1.00
9167;DHT22;4618;48.818;9.088;2022-09-28T11:48:01;15.60;99.90
9167;DHT22;4618;48.818;9.088;2022-09-28T11:53:19;15.70;99.90
9167;DHT22;4618;48.818;9.088;2022-09-28T11:56:13;15.40;99.90
9167;DHT22;4618;48.818;9.088;2022-09-28T11:58:50;15.10;99.90
9167;DHT22;4618;48.818;9.088;2022-09-28T12:01:46;15.50;1.00
9167;DHT22;4618;48.818;9.088;2022-09-28T12:04:18;15.80;99.90
9167;DHT22;4618;48.818;9.088;2022-09-28T12:06:52;15.40;99.90
9167;DHT22;4618;48.818;9.088;2022-09-28T12:09:27;15.10;1.00
9167;DHT22;4618;48.818;9.088;2022-09-28T12:11:58;15.00;1.00
9167;DHT22;4618;48.818;9.088;2022-09-28T12:14:29;14.30;99.90
9167;DHT22;4618;48.818;9.088;2022-09-28T12:17:38;13.90;99.90
9167;DHT22;4618;48.818;9.088;2022-09-28T12:20:09;14.00;99.90
9167;DHT22;4618;48.818;9.088;2022-09-28T12:22:47;14.50;66.30
9167;DHT22;4618;48.818;9.088;2022-09-28T12:25:17;14.70;1.00
9167;DHT22;4618;48.818;9.088;2022-09-28T12:27:52;14.70;1.00
9167;DHT22;4618;48.818;9.088;2022-09-28T12:30:21;14.70;1.00
9167;DHT22;4618;48.818;9.088;2022-09-28T12:33:04;15.00;1.00
9167;DHT22;4618;48.818;9.088;2022-09-28T12:40:55;15.30;1.00
9167;DHT22;4618;48.818;9.088;2022-09-28T12:46:20;15.00;20.80
9167;DHT22;4618;48.818;9.088;2022-09-28T12:51:42;14.50;1.00
9167;DHT22;4618;48.818;9.088;2022-09-28T13:00:05;14.40;99.90
9167;DHT22;4618;48.818;9.088;2022-09-28T13:06:06;14.80;1.00
9167;DHT22;4618;48.818;9.088;2022-09-28T13:11:33;14.80;1.00
9167;DHT22;4618;48.818;9.088;2022-09-28T13:14:41;14.90;1.00
9167;DHT22;4618;48.818;9.088;2022-09-28T13:20:57;15.00;1.00
9167;DHT22;4618;48.818;9.088;2022-09-28T13:23:33;15.50;1.00
9167;DHT22;4618;48.818;9.088;2022-09-28T13:28:39;14.70;1.00
9167;DHT22;4618;48.818;9.088;2022-09-28T13:31:06;14.60;1.00
9167;DHT22;4618;48.818;9.088;2022-09-28T13:33:39;14.90;1.00
9167;DHT22;4618;48.818;9.088;2022-09-28T13:38:49;14.60;1.00
9167;DHT22;4618;48.818;9.088;2022-09-28T13:41:19;14.40;1.00
9167;DHT22;4618;48.818;9.088;2022-09-28T13:52:08;15.00;99.90
9167;DHT22;4618;48.818;9.088;2022-09-28T13:54:19;14.40;1.00
9167;DHT22;4618;48.818;9.088;2022-09-28T13:59:25;14.20;1.00
9167;DHT22;4618;48.818;9.088;2022-09-28T14:02:04;13.80;1.00
9167;DHT22;4618;48.818;9.088;2022-09-28T14:07:24;14.10;1.00
9167;DHT22;4618;48.818;9.088;2022-09-28T14:10:17;14.20;1.00
9167;DHT22;4618;48.818;9.088;2022-09-28T14:12:45;14.30;1.00
9167;DHT22;4618;48.818;9.088;2022-09-28T14:15:37;14.00;1.00
9167;DHT22;4618;48.818;9.088;2022-09-28T14:18:27;14.30;1.00
9167;DHT22;4618;48.818;9.088;2022-09-28T14:31:25;14.80;99.90
9167;DHT22;4618;48.818;9.088;2022-09-28T14:33:59;15.10;1.00
9167;DHT22;4618;48.818;9.088;2022-09-28T14:36:37;15.00;99.90
9167;DHT22;4618;48.818;9.088;2022-09-28T14:39:30;14.90;99.90
9167;DHT22;4618;48.818;9.088;2022-09-28T14:42:21;14.80;99.90
9167;DHT22;4618;48.818;9.088;2022-09-28T14:52:49;14.10;1.00
9167;DHT22;4618;48.818;9.088;2022-09-28T14:55:19;13.80;1.00
9167;DHT22;4618;48.818;9.088;2022-09-28T14:57:56;13.60;1.00
9167;DHT22;4618;48.818;9.088;2022-09-28T15:00:25;13.60;1.00
9167;DHT22;4618;48.818;9.088;2022-09-28T15:02:53;13.80;1.00
9167;DHT22;4618;48.818;9.088;2022-09-28T15:05:34;13.70;1.00
9167;DHT22;4618;48.818;9.088;2022-09-28T15:08:01;13.80;1.00
9167;DHT22;4618;48.818;9.088;2022-09-28T15:10:34;13.80;1.00
9167;DHT22;4618;48.818;9.088;2022-09-28T15:13:18;14.00;1.00
9167;DHT22;4618;48.818;9.088;2022-09-28T15:15:48;14.00;99.90
9167;DHT22;4618;48.818;9.088;2022-09-28T15:18:23;13.80;1.00
9167;DHT22;4618;48.818;9.088;2022-09-28T15:20:53;13.90;1.00
9167;DHT22;4618;48.818;9.088;2022-09-28T15:25:54;14.20;99.90
9167;DHT22;4618;48.818;9.088;2022-09-28T15:28:22;14.20;1.00
9167;DHT22;4618;48.818;9.088;2022-09-28T15:30:48;14.20;1.00
9167;DHT22;4618;48.818;9.088;2022-09-28T15:33:31;14.00;1.00
9167;DHT22;4618;48.818;9.088;2022-09-28T15:38:53;13.80;99.90
9167;DHT22;4618;48.818;9.088;2022-09-28T15:41:20;13.60;1.00
9167;DHT22;4618;48.818;9.088;2022-09-28T15:46:37;13.60;1.00
9167;DHT22;4618;48.818;9.088;2022-09-28T15:49:04;13.50;1.00
9167;DHT22;4618;48.818;9.088;2022-09-28T15:51:31;13.30;1.00
9167;DHT22;4618;48.818;9.088;2022-09-28T15:54:16;13.20;1.00
9167;DHT22;4618;48.818;9.088;2022-09-28T15:56:55;13.20;1.00
9167;DHT22;4618;48.818;9.088;2022-09-28T15:59:37;13.20;1.00
9167;DHT22;4618;48.818;9.088;2022-09-28T16:02:17;13.50;1.00
9167;DHT22;4618;48.818;9.088;2022-09-28T16:12:21;13.10;1.00
9167;DHT22;4618;48.818;9.088;2022-09-28T16:14:53;13.30;1.00
9167;DHT22;4618;48.818;9.088;2022-09-28T16:17:27;13.50;1.00
9167;DHT22;4618;48.818;9.088;2022-09-28T16:19:57;13.70;1.00
9167;DHT22;4618;48.818;9.088;2022-09-28T16:22:22;13.80;1.00
9167;DHT22;4618;48.818;9.088;2022-09-28T16:24:56;13.60;1.00
9167;DHT22;4618;48.818;9.088;2022-09-28T16:27:42;13.50;1.00
9167;DHT22;4618;48.818;9.088;2022-09-28T16:30:24;13.50;1.00
9167;DHT22;4618;48.818;9.088;2022-09-28T16:33:07;13.30;1.00
9167;DHT22;4618;48.818;9.088;2022-09-28T16:35:50;12.90;1.00
9167;DHT22;4618;48.818;9.088;2022-09-28T16:38:17;12.80;1.00
9167;DHT22;4618;48.818;9.088;2022-09-28T16:40:52;13.00;1.00
9167;DHT22;4618;48.818;9.088;2022-09-28T16:43:25;13.30;1.00
9167;DHT22;4618;48.818;9.088;2022-09-28T16:45:57;13.20;1.00
9167;DHT22;4618;48.818;9.088;2022-09-28T16:48:28;13.00;1.00
9167;DHT22;4618;48.818;9.088;2022-09-28T16:50:55;12.70;1.00
9167;DHT22;4618;48.818;9.088;2022-09-28T16:53:21;12.60;81.40
9167;DHT22;4618;48.818;9.088;2022-09-28T16:56:06;12.50;99.90
9167;DHT22;4618;48.818;9.088;2022-09-28T16:58:31;12.40;99.90
9167;DHT22;4618;48.818;9.088;2022-09-28T17:00:58;12.30;99.90
9167;DHT22;4618;48.818;9.088;2022-09-28T17:03:24;12.10;99.90
9167;DHT22;4618;48.818;9.088;2022-09-28T17:05:51;11.70;1.00
9167;DHT22;4618;48.818;9.088;2022-09-28T17:08:19;11.50;1.00
9167;DHT22;4618;48.818;9.088;2022-09-28T17:10:59;11.20;99.90
9167;DHT22;4618;48.818;9.088;2022-09-28T17:13:30;11.00;99.90
9167;DHT22;4618;48.818;9.088;2022-09-28T17:16:01;10.90;1.00
9167;DHT22;4618;48.818;9.088;2022-09-28T17:18:27;10.70;1.00
9167;DHT22;4618;48.818;9.088;2022-09-28T17:20:56;10.50;1.00
9167;DHT22;4618;48.818;9.088;2022-09-28T17:23:23;10.50;1.00
9167;DHT22;4618;48.818;9.088;2022-09-28T17:25:49;10.40;1.00
9167;DHT22;4618;48.818;9.088;2022-09-28T17:28:33;10.20;1.00
9167;DHT22;4618;48.818;9.088;2022-09-28T17:30:59;10.20;1.00
9167;DHT22;4618;48.818;9.088;2022-09-28T17:33:25;10.10;1.00
9167;DHT22;4618;48.818;9.088;2022-09-28T17:35:52;9.80;99.90
9167;DHT22;4618;48.818;9.088;2022-09-28T17:38:24;9.70;99.90
9167;DHT22;4618;48.818;9.088;2022-09-28T17:40:49;9.60;1.00
9167;DHT22;4618;48.818;9.088;2022-09-28T17:43:15;9.40;1.00
9167;DHT22;4618;48.818;9.088;2022-09-28T17:45:44;9.30;1.00
9167;DHT22;4618;48.818;9.088;2022-09-28T17:48:12;9.20;1.00
9167;DHT22;4618;48.818;9.088;2022-09-28T17:50:40;9.00;99.90
9167;DHT22;4618;48.818;9.088;2022-09-28T17:53:07;8.90;99.90
9167;DHT22;4618;48.818;9.088;2022-09-28T17:55:35;8.90;1.00
9167;DHT22;4618;48.818;9.088;2022-09-28T17:58:10;9.00;99.90
9167;DHT22;4618;48.818;9.088;2022-09-28T18:00:37;8.90;99.90
9167;DHT22;4618;48.818;9.088;2022-09-28T18:03:03;8.80;99.90
9167;DHT22;4618;48.818;9.088;2022-09-28T18:05:28;8.70;1.00
9167;DHT22;4618;48.818;9.088;2022-09-28T18:07:55;8.80;99.90
9167;DHT22;4618;48.818;9.088;2022-09-28T18:10:23;8.80;99.90
9167;DHT22;4618;48.818;9.088;2022-09-28T18:12:50;8.60;1.00
9167;DHT22;4618;48.818;9.088;2022-09-28T18:15:17;8.50;1.00
9167;DHT22;4618;48.818;9.088;2022-09-28T18:17:43;8.40;99.90
9167;DHT22;4618;48.818;9.088;2022-09-28T18:20:10;8.40;99.90
9167;DHT22;4618;48.818;9.088;2022-09-28T18:22:36;8.40;99.90
9167;DHT22;4618;48.818;9.088;2022-09-28T18:25:02;8.30;99.90
9167;DHT22;4618;48.818;9.088;2022-09-28T18:27:28;8.20;99.90
9167;DHT22;4618;48.818;9.088;2022-09-28T18:29:55;8.20;99.90
9167;DHT22;4618;48.818;9.088;2022-09-28T18:32:21;8.10;1.00
9167;DHT22;4618;48.818;9.088;2022-09-28T18:34:47;8.20;99.90
9167;DHT22;4618;48.818;9.088;2022-09-28T18:37:12;8.20;1.00
9167;DHT22;4618;48.818;9.088;2022-09-28T18:39:38;8.20;1.00
9167;DHT22;4618;48.818;9.088;2022-09-28T18:42:06;8.30;1.00
9167;DHT22;4618;48.818;9.088;2022-09-28T18:44:32;8.20;1.00
9167;DHT22;4618;48.818;9.088;2022-09-28T18:46:58;8.10;47.50
9167;DHT22;4618;48.818;9.088;2022-09-28T18:49:26;8.00;99.90
9167;DHT22;4618;48.818;9.088;2022-09-28T18:51:51;7.90;1.00
9167;DHT22;4618;48.818;9.088;2022-09-28T18:54:17;7.70;1.00
9167;DHT22;4618;48.818;9.088;2022-09-28T18:56:42;7.60;99.90
9167;DHT22;4618;48.818;9.088;2022-09-28T18:59:08;7.60;1.00
9167;DHT22;4618;48.818;9.088;2022-09-28T19:01:35;7.70;1.00
9167;DHT22;4618;48.818;9.088;2022-09-28T19:04:02;7.50;99.90
9167;DHT22;4618;48.818;9.088;2022-09-28T19:06:28;7.30;1.00
9167;DHT22;4618;48.818;9.088;2022-09-28T19:08:54;7.40;1.00
9167;DHT22;4618;48.818;9.088;2022-09-28T19:11:20;7.30;1.00
9167;DHT22;4618;48.818;9.088;2022-09-28T19:13:46;7.40;1.00
9167;DHT22;4618;48.818;9.088;2022-09-28T19:16:17;7.60;47.40
9167;DHT22;4618;48.818;9.088;2022-09-28T19:18:43;7.70;1.00
9167;DHT22;4618;48.818;9.088;2022-09-28T19:21:10;7.80;14.00
9167;DHT22;4618;48.818;9.088;2022-09-28T19:23:41;7.90;53.70
9167;DHT22;4618;48.818;9.088;2022-09-28T19:26:13;7.90;99.90
9167;DHT22;4618;48.818;9.088;2022-09-28T19:28:39;8.00;99.90
9167;DHT22;4618;48.818;9.088;2022-09-28T19:31:06;8.00;99.90